createdAt,value
2022-11-12T00:02:12.008Z,102544.81
2022-11-12T00:05:11.208Z,102549.22
2022-11-12T00:08:09.962Z,102556.31
2022-11-12T00:11:11.064Z,102552.03
2022-11-12T00:14:11.586Z,102551.19
2022-11-12T00:17:10.168Z,102553.94
2022-11-12T00:20:30.397Z,102556.69
2022-11-12T00:23:42.815Z,102561.16
2022-11-12T00:26:41.427Z,102563.00
2022-11-12T00:29:40.519Z,102561.34
2022-11-12T00:32:39.419Z,102564.09
2022-11-12T00:35:38.387Z,102571.16
2022-11-12T00:38:39.421Z,102564.31
2022-11-12T00:41:58.815Z,102574.81
2022-11-12T00:44:59.837Z,102569.66
2022-11-12T00:48:19.233Z,102579.44
2022-11-12T00:51:18.344Z,102576.03
2022-11-12T00:54:17.275Z,102590.94
2022-11-12T00:57:16.260Z,102583.19
2022-11-12T01:00:16.499Z,102590.28
2022-11-12T01:03:15.870Z,102586.94
2022-11-12T01:06:25.292Z,102586.97
2022-11-12T01:09:23.704Z,102587.03
2022-11-12T01:12:24.730Z,102591.56
2022-11-12T01:15:24.325Z,102583.78
2022-11-12T01:18:26.148Z,102589.16
2022-11-12T01:21:29.344Z,102585.75
2022-11-12T01:24:28.400Z,102591.88
2022-11-12T01:27:27.451Z,102597.25
2022-11-12T01:30:40.109Z,102605.19
2022-11-12T01:33:38.746Z,102613.16
2022-11-12T01:36:40.058Z,102619.28
2022-11-12T01:39:40.348Z,102629.78
2022-11-12T01:42:40.941Z,102638.59
2022-11-12T01:45:39.568Z,102641.28
2022-11-12T01:48:39.512Z,102643.91
2022-11-12T01:51:39.973Z,102657.94
2022-11-12T01:54:54.068Z,102657.09
2022-11-12T01:58:09.936Z,102652.03
2022-11-12T02:01:09.359Z,102652.09
2022-11-12T02:04:08.364Z,102655.69
2022-11-12T02:07:07.445Z,102653.16
2022-11-12T02:10:09.568Z,102648.97
2022-11-12T02:13:26.086Z,102651.66
2022-11-12T02:16:35.832Z,102652.59
2022-11-12T02:19:33.676Z,102651.00
2022-11-12T02:22:32.987Z,102652.03
2022-11-12T02:25:32.096Z,102654.66
2022-11-12T02:28:31.410Z,102644.22
2022-11-12T02:31:30.140Z,102642.63
2022-11-12T02:34:30.999Z,102641.84
2022-11-12T02:37:29.598Z,102642.84
2022-11-12T02:40:30.599Z,102647.31
2022-11-12T02:43:29.336Z,102642.97
2022-11-12T02:46:31.236Z,102640.50
2022-11-12T02:49:32.387Z,102648.47
2022-11-12T02:52:33.280Z,102643.28
2022-11-12T02:55:33.638Z,102644.25
2022-11-12T02:58:32.407Z,102658.34
2022-11-12T03:01:33.365Z,102653.09
2022-11-12T03:04:33.868Z,102648.75
2022-11-12T03:07:34.473Z,102650.59
2022-11-12T03:10:33.268Z,102648.88
2022-11-12T03:13:34.120Z,102648.03
2022-11-12T03:16:32.712Z,102651.56
2022-11-12T03:19:31.749Z,102650.72
2022-11-12T03:22:30.683Z,102659.56
2022-11-12T03:25:30.037Z,102661.38
2022-11-12T03:28:29.134Z,102666.63
2022-11-12T03:31:29.316Z,102677.13
2022-11-12T03:34:28.312Z,102680.66
2022-11-12T03:37:27.322Z,102685.91
2022-11-12T03:40:26.548Z,102679.75
2022-11-12T03:43:24.563Z,102687.63
2022-11-12T03:46:24.348Z,102678.09
2022-11-12T03:49:25.362Z,102679.94
2022-11-12T03:52:25.008Z,102674.72
2022-11-12T03:55:25.006Z,102684.44
2022-11-12T03:58:25.912Z,102685.38
2022-11-12T04:01:25.809Z,102678.44
2022-11-12T04:04:45.980Z,102675.81
2022-11-12T04:08:02.194Z,102675.94
2022-11-12T04:11:01.209Z,102671.59
2022-11-12T04:14:02.369Z,102677.75
2022-11-12T04:17:20.371Z,102682.25
2022-11-12T04:20:36.644Z,102671.81
2022-11-12T04:23:35.680Z,102674.50
2022-11-12T04:26:36.662Z,102671.00
2022-11-12T04:29:52.898Z,102665.00
2022-11-12T04:32:54.615Z,102666.81
2022-11-12T04:35:54.059Z,102664.22
2022-11-12T04:38:53.078Z,102668.63
2022-11-12T04:42:11.527Z,102664.34
2022-11-12T04:45:13.324Z,102659.19
2022-11-12T04:48:14.552Z,102659.19
2022-11-12T04:51:29.107Z,102652.28
2022-11-12T04:54:28.103Z,102658.50
2022-11-12T04:57:29.131Z,102659.59
2022-11-12T05:00:41.112Z,102659.59
2022-11-12T05:03:40.100Z,102667.44
2022-11-12T05:07:03.065Z,102662.31
2022-11-12T05:10:22.339Z,102669.59
2022-11-12T05:13:23.931Z,102672.31
2022-11-12T05:16:22.566Z,102663.59
2022-11-12T05:19:23.592Z,102667.13
2022-11-12T05:22:42.651Z,102671.50
2022-11-12T05:25:42.004Z,102670.66
2022-11-12T05:28:42.053Z,102663.59
2022-11-12T05:31:41.680Z,102670.66
2022-11-12T05:34:40.602Z,102663.81
2022-11-12T05:37:40.621Z,102661.22
2022-11-12T05:40:45.074Z,102664.88
2022-11-12T05:43:46.024Z,102670.09
2022-11-12T05:46:46.624Z,102673.63
2022-11-12T05:49:45.247Z,102666.69
2022-11-12T05:52:46.279Z,102661.47
2022-11-12T05:55:46.839Z,102658.06
2022-11-12T05:58:46.459Z,102652.84
2022-11-12T06:01:48.046Z,102651.22
2022-11-12T06:05:07.837Z,102653.03
2022-11-12T06:08:06.823Z,102659.19
2022-11-12T06:11:07.498Z,102651.56
2022-11-12T06:14:06.485Z,102659.31
2022-11-12T06:17:07.100Z,102677.63
2022-11-12T06:20:06.264Z,102688.97
2022-11-12T06:23:04.819Z,102689.81
2022-11-12T06:26:04.161Z,102698.53
2022-11-12T06:29:44.922Z,102707.22
2022-11-12T06:32:42.015Z,102704.63
2022-11-12T06:35:43.481Z,102716.88
2022-11-12T06:38:57.335Z,102723.84
2022-11-12T06:41:55.971Z,102729.09
2022-11-12T06:44:56.911Z,102732.59
2022-11-12T06:47:55.920Z,102730.88
2022-11-12T06:50:57.811Z,102732.59
2022-11-12T06:53:56.862Z,102736.03
2022-11-12T06:56:55.728Z,102735.13
2022-11-12T06:59:55.720Z,102741.28
2022-11-12T07:02:55.345Z,102748.28
2022-11-12T07:05:54.694Z,102746.63
2022-11-12T07:08:53.343Z,102750.94
2022-11-12T07:12:02.242Z,102761.38
2022-11-12T07:15:03.185Z,102770.06
2022-11-12T07:18:03.802Z,102766.44
2022-11-12T07:21:05.369Z,102781.25
2022-11-12T07:24:06.923Z,102781.16
2022-11-12T07:27:06.820Z,102780.19
2022-11-12T07:30:08.670Z,102794.97
2022-11-12T07:33:10.004Z,102802.66
2022-11-12T07:36:11.471Z,102807.78
2022-11-12T07:39:10.827Z,102820.75
2022-11-12T07:42:12.474Z,102831.94
2022-11-12T07:45:12.327Z,102850.97
2022-11-12T07:48:13.059Z,102857.84
2022-11-12T07:51:12.626Z,102873.16
2022-11-12T07:54:14.342Z,102905.31
2022-11-12T07:57:12.898Z,102931.31
2022-11-12T08:00:13.126Z,102946.75
2022-11-12T08:03:14.502Z,102972.72
2022-11-12T08:06:13.091Z,102989.13
2022-11-12T08:09:12.150Z,103001.91
2022-11-12T08:12:11.123Z,103021.75
2022-11-12T08:15:10.564Z,103039.88
2022-11-12T08:18:09.216Z,102824.13
2022-11-12T08:21:08.743Z,102846.66
2022-11-12T08:24:07.551Z,102860.28
2022-11-12T08:27:06.146Z,102868.72
2022-11-12T08:30:05.638Z,102883.19
2022-11-12T08:33:06.797Z,102885.41
2022-11-12T08:36:09.422Z,102898.13
2022-11-12T08:39:09.015Z,102899.38
2022-11-12T08:42:28.488Z,102887.44
2022-11-12T08:45:29.585Z,102884.38
2022-11-12T08:48:30.487Z,102891.63
2022-11-12T08:51:31.584Z,102885.00
2022-11-12T08:54:30.982Z,102884.34
2022-11-12T08:57:30.074Z,102881.00
2022-11-12T09:00:29.076Z,102878.69
2022-11-12T09:03:28.023Z,102889.53
2022-11-12T09:06:27.124Z,102880.94
2022-11-12T09:09:26.056Z,102883.00
2022-11-12T09:12:25.107Z,102893.81
2022-11-12T09:15:41.187Z,102893.69
2022-11-12T09:18:38.718Z,102900.78
2022-11-12T09:21:40.174Z,102907.31
2022-11-12T09:24:42.344Z,102912.72
2022-11-12T09:27:45.732Z,102915.66
2022-11-12T09:30:48.443Z,102916.91
2022-11-12T09:33:48.563Z,102928.56
2022-11-12T09:36:47.592Z,102939.19
2022-11-12T09:39:44.644Z,102947.47
2022-11-12T09:42:43.773Z,102943.47
2022-11-12T09:45:50.390Z,102937.50
2022-11-12T09:49:02.861Z,102926.66
2022-11-12T09:52:23.527Z,102922.09
2022-11-12T09:55:24.669Z,102914.25
2022-11-12T09:58:26.224Z,102907.19
2022-11-12T10:01:31.999Z,102889.66
2022-11-12T10:04:38.280Z,102874.81
2022-11-12T10:07:43.427Z,102855.41
2022-11-12T10:10:45.251Z,102843.97
2022-11-12T10:13:58.444Z,102816.06
2022-11-12T10:16:58.833Z,102780.63
2022-11-12T10:20:02.165Z,102747.34
2022-11-12T10:23:05.684Z,102727.13
2022-11-12T10:26:10.154Z,102699.63
2022-11-12T10:29:13.896Z,102677.59
2022-11-12T10:32:15.210Z,102654.69
2022-11-12T10:35:15.665Z,102632.59
2022-11-12T10:40:53.547Z,102584.91
2022-11-12T10:43:59.130Z,102559.16
2022-11-12T10:47:17.301Z,102528.06
2022-11-12T10:50:21.639Z,102503.25
2022-11-12T10:53:33.974Z,102481.59
2022-11-12T10:56:34.604Z,102454.84
2022-11-12T10:59:33.649Z,102439.13
2022-11-12T11:02:34.411Z,102606.44
2022-11-12T11:05:35.260Z,102595.81
2022-11-12T11:08:44.063Z,102572.75
2022-11-12T11:12:06.716Z,102550.81
2022-11-12T11:15:20.029Z,102530.25
2022-11-12T11:18:18.473Z,102509.31
2022-11-12T11:21:44.443Z,102510.41
2022-11-12T11:24:50.176Z,102508.84
2022-11-12T11:27:58.521Z,102494.31
2022-11-12T11:31:03.334Z,102478.13
2022-11-12T11:34:12.324Z,102464.81
2022-11-12T11:37:28.994Z,102474.47
2022-11-12T11:40:31.222Z,102482.97
2022-11-12T11:43:41.712Z,102473.84
2022-11-12T11:46:50.264Z,102474.31
2022-11-12T11:50:00.031Z,102481.88
2022-11-12T11:53:06.841Z,102491.84
2022-11-12T11:56:10.536Z,102502.97
2022-11-12T11:59:23.271Z,102510.03
2022-11-12T12:02:40.101Z,102523.97
2022-11-12T12:05:44.841Z,102524.19
2022-11-12T12:08:53.770Z,102536.63
2022-11-12T12:12:01.945Z,102545.44
2022-11-12T12:15:17.364Z,102544.84
2022-11-12T12:18:23.587Z,102542.75
2022-11-12T12:21:25.948Z,102540.34
2022-11-12T12:24:26.956Z,102535.16
2022-11-12T12:27:28.678Z,102536.00
2022-11-12T12:30:30.594Z,102537.53
2022-11-12T12:33:33.757Z,102528.00
2022-11-12T12:36:36.273Z,102535.03
2022-11-12T12:39:46.590Z,102523.97
2022-11-12T12:42:52.225Z,102530.94
2022-11-12T12:45:50.668Z,102524.34
2022-11-12T12:48:51.621Z,102531.53
2022-11-12T12:51:55.462Z,102528.00
2022-11-12T12:54:58.951Z,102522.53
2022-11-12T12:58:00.943Z,102515.38
2022-11-12T13:01:31.265Z,102510.03
2022-11-12T13:04:52.785Z,102501.59
2022-11-12T13:07:54.090Z,102504.66
2022-11-12T13:10:54.347Z,102506.63
2022-11-12T13:13:53.691Z,102511.72
2022-11-12T13:17:01.430Z,102504.81
2022-11-12T13:20:33.423Z,102501.56
2022-11-12T13:24:05.468Z,102505.19
2022-11-12T13:27:03.935Z,102516.31
2022-11-12T13:30:02.955Z,102510.34
2022-11-12T13:33:07.628Z,102511.53
2022-11-12T13:36:28.094Z,102509.25
2022-11-12T13:39:25.968Z,102496.63
2022-11-12T13:42:59.491Z,102502.22
2022-11-12T13:46:01.309Z,102501.63
2022-11-12T13:49:03.651Z,102491.94
2022-11-12T13:52:01.990Z,102500.78
2022-11-12T13:55:03.984Z,102504.94
2022-11-12T13:58:03.026Z,102511.97
2022-11-12T14:01:02.988Z,102507.34
2022-11-12T14:04:01.667Z,102499.59
2022-11-12T14:07:05.364Z,102503.59
2022-11-12T14:10:11.655Z,102504.69
2022-11-12T14:13:27.803Z,102508.56
2022-11-12T14:16:37.878Z,102503.50
2022-11-12T14:20:00.167Z,102498.25
2022-11-12T14:23:05.430Z,102495.19
2022-11-12T14:26:04.506Z,102493.22
2022-11-12T14:29:03.515Z,102485.66
2022-11-12T14:32:03.632Z,102481.97
2022-11-12T14:37:59.373Z,102485.22
2022-11-12T14:41:02.539Z,102493.97
2022-11-12T14:44:13.820Z,102495.75
2022-11-12T14:47:12.332Z,102489.59
2022-11-12T14:50:17.272Z,102490.72
2022-11-12T14:53:25.234Z,102488.00
2022-11-12T14:56:35.304Z,102485.22
2022-11-12T14:59:37.486Z,102476.63
2022-11-12T15:02:53.814Z,102486.31
2022-11-12T15:05:56.534Z,102481.22
2022-11-12T15:09:18.644Z,102465.56
2022-11-12T15:12:21.310Z,102465.22
2022-11-12T15:15:22.640Z,102467.97
2022-11-12T15:18:23.320Z,102472.31
2022-11-12T15:21:26.112Z,102469.63
2022-11-12T15:24:31.699Z,102468.50
2022-11-12T15:27:36.088Z,102464.03
2022-11-12T15:30:35.729Z,102463.97
2022-11-12T15:33:56.496Z,102462.13
2022-11-12T15:36:53.652Z,102458.47
2022-11-12T15:39:54.413Z,102457.34
2022-11-12T15:42:54.028Z,102456.31
2022-11-12T15:45:54.247Z,102458.72
2022-11-12T15:48:55.997Z,102461.25
2022-11-12T15:51:55.697Z,102454.75
2022-11-12T15:54:53.978Z,102448.41
2022-11-12T15:57:53.758Z,102456.31
2022-11-12T16:00:51.836Z,102465.69
2022-11-12T16:03:49.482Z,102454.88
2022-11-12T16:06:49.153Z,102454.69
2022-11-12T16:09:49.115Z,102452.56
2022-11-12T16:12:48.280Z,102453.97
2022-11-12T16:15:50.620Z,102453.56
2022-11-12T16:18:48.912Z,102443.63
2022-11-12T16:21:48.985Z,102439.63
2022-11-12T16:25:02.416Z,102429.69
2022-11-12T16:28:04.953Z,102432.75
2022-11-12T16:31:04.135Z,102435.94
2022-11-12T16:34:05.154Z,102427.56
2022-11-12T16:37:06.974Z,102414.72
2022-11-12T16:40:08.563Z,102414.28
2022-11-12T16:43:07.194Z,102415.56
2022-11-12T16:46:13.041Z,102422.16
2022-11-12T16:49:15.008Z,102421.63
2022-11-12T16:52:13.917Z,102418.47
2022-11-12T16:55:15.151Z,102406.59
2022-11-12T16:58:15.335Z,102411.47
2022-11-12T17:01:24.447Z,102412.66
2022-11-12T17:04:26.043Z,102408.81
2022-11-12T17:07:24.081Z,102406.50
2022-11-12T17:10:23.812Z,102407.66
2022-11-12T17:13:25.261Z,102400.16
2022-11-12T17:16:24.592Z,102397.94
2022-11-12T17:19:22.479Z,102393.81
2022-11-12T17:22:21.508Z,102390.59
2022-11-12T17:25:20.564Z,102379.44
2022-11-12T17:28:19.512Z,102375.31
2022-11-12T17:31:30.340Z,102372.88
2022-11-12T17:34:32.358Z,102376.63
2022-11-12T17:37:31.694Z,102374.31
2022-11-12T17:40:30.508Z,102372.75
2022-11-12T17:43:30.661Z,102366.88
2022-11-12T17:46:28.905Z,102373.31
2022-11-12T17:49:27.519Z,102381.38
2022-11-12T17:52:27.529Z,102381.69
2022-11-12T17:55:27.586Z,102381.00
2022-11-12T17:58:26.932Z,102380.38
2022-11-12T18:01:26.964Z,102389.34
2022-11-12T18:04:29.862Z,102390.34
2022-11-12T18:07:30.545Z,102395.88
2022-11-12T18:10:30.072Z,102399.75
2022-11-12T18:13:29.415Z,102406.88
2022-11-12T18:16:29.703Z,102419.25
2022-11-12T18:19:28.825Z,102422.25
2022-11-12T18:22:29.842Z,102434.75
2022-11-12T18:25:29.373Z,102436.69
2022-11-12T18:28:27.426Z,102442.94
2022-11-12T18:31:28.873Z,102444.06
2022-11-12T18:34:30.072Z,102453.06
2022-11-12T18:37:31.198Z,102456.00
2022-11-12T18:40:30.953Z,102458.75
2022-11-12T18:43:56.970Z,102470.28
2022-11-12T18:46:56.253Z,102471.28
2022-11-12T18:49:55.191Z,102482.03
2022-11-12T18:52:54.201Z,102473.44
2022-11-12T18:55:53.363Z,102486.72
2022-11-12T18:58:52.182Z,102486.78
2022-11-12T19:01:51.255Z,102485.22
2022-11-12T19:04:51.237Z,102497.75
2022-11-12T19:07:50.592Z,102508.41
2022-11-12T19:11:01.895Z,102515.53
2022-11-12T19:14:00.662Z,102514.00
2022-11-12T19:17:02.620Z,102506.38
2022-11-12T19:20:13.789Z,102512.66
2022-11-12T19:23:12.629Z,102528.72
2022-11-12T19:26:14.909Z,102527.97
2022-11-12T19:29:13.823Z,102510.59
2022-11-12T19:32:13.408Z,102509.88
2022-11-12T19:35:12.047Z,102525.69
2022-11-12T19:38:10.913Z,102528.44
2022-11-12T19:41:18.757Z,102531.31
2022-11-12T19:44:20.871Z,102537.63
2022-11-12T19:47:19.067Z,102542.31
2022-11-12T19:50:24.707Z,102538.03
2022-11-12T19:53:23.508Z,102537.13
2022-11-12T19:56:22.531Z,102539.81
2022-11-12T20:09:46.336Z,102558.78
2022-11-12T20:12:48.118Z,102569.44
2022-11-12T20:15:47.272Z,102573.97
2022-11-12T20:18:50.859Z,102578.47
2022-11-12T20:21:50.064Z,102583.72
2022-11-12T20:24:49.106Z,102590.03
2022-11-12T20:27:48.083Z,102592.78
2022-11-12T20:30:49.303Z,102605.94
2022-11-12T20:33:50.945Z,102611.47
2022-11-12T20:36:49.960Z,102613.16
2022-11-12T20:39:49.039Z,102617.50
2022-11-12T20:42:51.838Z,102624.59
2022-11-12T20:45:52.797Z,102647.31
2022-11-12T20:48:53.881Z,102657.03
2022-11-12T20:51:52.964Z,102672.63
2022-11-12T20:55:03.880Z,102689.25
2022-11-12T20:58:02.741Z,102705.94
2022-11-12T21:01:04.175Z,102711.03
2022-11-12T21:04:02.342Z,102728.63
2022-11-12T21:07:22.631Z,102744.41
2022-11-12T21:10:21.224Z,102754.81
2022-11-12T21:13:20.463Z,102756.47
2022-11-12T21:16:21.247Z,102768.81
2022-11-12T21:19:19.948Z,102772.34
2022-11-12T21:22:18.780Z,102771.44
2022-11-12T21:25:17.883Z,102775.84
2022-11-12T21:28:16.820Z,102783.66
2022-11-12T21:31:19.013Z,102793.25
2022-11-12T21:34:19.260Z,102797.59
2022-11-12T21:37:18.175Z,102799.44
2022-11-12T21:40:16.968Z,102802.00
2022-11-12T21:43:15.045Z,102808.91
2022-11-12T21:46:16.220Z,102817.66
2022-11-12T21:49:37.477Z,102813.25
2022-11-12T21:52:36.108Z,102630.03
2022-11-12T21:55:35.126Z,102640.56
2022-11-12T21:58:36.643Z,102644.91
2022-11-12T22:01:34.846Z,102639.63
2022-11-12T22:04:33.791Z,102643.97
2022-11-12T22:07:52.356Z,102641.34
2022-11-12T22:10:51.698Z,102644.91
2022-11-12T22:13:49.986Z,102648.38
2022-11-12T22:16:48.934Z,102643.84
2022-11-12T22:19:47.944Z,102644.78
2022-11-12T22:22:46.918Z,102637.81
2022-11-12T22:25:46.268Z,102642.06
2022-11-12T22:28:45.556Z,102640.25
2022-11-12T22:31:46.185Z,102653.31
2022-11-12T22:34:49.309Z,102652.34
2022-11-12T22:37:48.415Z,102648.00
2022-11-12T22:40:46.104Z,102647.88
2022-11-12T22:43:47.716Z,102648.66
2022-11-12T22:46:46.997Z,102649.53
2022-11-12T22:49:47.125Z,102651.19
2022-11-12T22:52:50.013Z,102656.34
2022-11-12T22:55:49.866Z,102654.56
2022-11-12T22:58:51.245Z,102651.06
2022-11-12T23:01:53.099Z,102646.47
2022-11-12T23:04:54.276Z,102648.19
2022-11-12T23:07:52.833Z,102647.31
2022-11-12T23:10:55.233Z,102643.72
2022-11-12T23:13:54.632Z,102649.75
2022-11-12T23:16:53.109Z,102648.84
2022-11-12T23:19:52.131Z,102651.38
2022-11-12T23:22:53.271Z,102653.16
2022-11-12T23:25:51.702Z,102642.63
2022-11-12T23:29:03.627Z,102649.59
2022-11-12T23:32:03.556Z,102645.13
2022-11-12T23:35:04.102Z,102641.56
2022-11-12T23:38:02.760Z,102633.81
2022-11-12T23:41:02.434Z,102635.53
2022-11-12T23:44:01.674Z,102632.91
2022-11-12T23:46:59.731Z,102625.00
2022-11-12T23:50:00.758Z,102627.63
2022-11-12T23:53:11.210Z,102631.19
2022-11-12T23:56:15.125Z,102626.03
2022-11-12T23:59:13.912Z,102631.28
